Time;durP1;ratioP1;P1;durP2;ratioP2;P2;SDS_P1;SDS_P2;PMS_P1;PMS_P2;Temp;Humidity;BMP_temperature;BMP_pressure;BME280_temperature;BME280_humidity;BME280_pressure;Samples;Min_cycle;Max_cycle;Signal;HPM_P1;HPM_P2
2023/05/20 00:00:40;;;;;;;20.45;7.90;;;10.10;99.90;;;;;;5045674;28;20495;-61
2023/05/20 00:03:05;;;;;;;19.58;7.65;;;10.10;99.90;;;;;;5042451;28;20051;-61
2023/05/20 00:05:31;;;;;;;19.05;8.55;;;10.00;99.90;;;;;;5047999;28;20427;-61
2023/05/20 00:07:56;;;;;;;20.15;8.35;;;10.00;99.90;;;;;;5043103;28;20068;-61
2023/05/20 00:10:22;;;;;;;23.05;8.75;;;10.00;99.90;;;;;;5047336;28;20037;-61
2023/05/20 00:12:48;;;;;;;19.35;8.30;;;10.00;99.90;;;;;;5039420;28;20040;-61
2023/05/20 00:15:13;;;;;;;22.90;7.95;;;10.00;99.90;;;;;;5050660;28;20029;-61
2023/05/20 00:17:39;;;;;;;19.60;8.73;;;10.00;99.90;;;;;;5050497;28;20041;-61
2023/05/20 00:20:05;;;;;;;21.38;8.50;;;9.90;99.90;;;;;;5060490;28;20044;-60
2023/05/20 00:22:31;;;;;;;17.38;7.60;;;10.00;99.90;;;;;;5078094;28;20040;-61
2023/05/20 00:24:56;;;;;;;18.00;8.05;;;10.00;99.90;;;;;;5041840;28;20056;-61
2023/05/20 00:27:22;;;;;;;16.25;9.02;;;10.00;99.90;;;;;;5044935;28;20132;-61
2023/05/20 00:29:47;;;;;;;22.17;8.23;;;10.00;99.90;;;;;;5046501;28;20057;-61
2023/05/20 00:32:13;;;;;;;20.10;9.05;;;10.10;99.90;;;;;;5045063;28;20072;-62
2023/05/20 00:34:39;;;;;;;17.45;8.13;;;10.10;99.90;;;;;;5045549;28;20445;-61
2023/05/20 00:37:04;;;;;;;15.93;8.20;;;10.10;99.90;;;;;;5046660;28;20409;-61
2023/05/20 00:39:30;;;;;;;15.70;7.95;;;10.10;99.90;;;;;;5044506;28;20029;-61
2023/05/20 00:41:59;;;;;;;21.33;7.97;;;10.10;99.90;;;;;;5045016;28;20055;-60
2023/05/20 00:44:25;;;;;;;19.10;8.48;;;10.10;99.90;;;;;;5037838;28;20037;-61
2023/05/20 00:46:52;;;;;;;19.27;8.48;;;10.10;99.90;;;;;;5040309;28;20049;-61
2023/05/20 00:49:18;;;;;;;19.23;8.75;;;10.10;99.90;;;;;;5042694;28;20078;-61
2023/05/20 00:51:44;;;;;;;22.83;8.55;;;10.10;99.90;;;;;;5049003;28;20148;-61
2023/05/20 00:54:10;;;;;;;16.77;7.95;;;10.10;99.90;;;;;;5046210;28;20048;-61
2023/05/20 00:56:36;;;;;;;19.55;8.25;;;10.10;99.90;;;;;;5040883;28;20040;-61
2023/05/20 00:59:02;;;;;;;21.88;8.65;;;10.10;99.90;;;;;;5043118;28;20045;-61
2023/05/20 01:01:27;;;;;;;19.58;8.45;;;10.00;99.90;;;;;;5030197;28;20034;-61
2023/05/20 01:03:53;;;;;;;18.95;8.18;;;10.10;99.90;;;;;;5042898;28;20504;-61
2023/05/20 01:06:18;;;;;;;21.75;8.48;;;10.10;99.90;;;;;;5046751;28;20053;-61
2023/05/20 01:08:44;;;;;;;18.90;8.73;;;10.10;99.90;;;;;;5045467;28;20507;-61
2023/05/20 01:11:21;;;;;;;23.27;8.38;;;10.10;99.90;;;;;;5039121;28;20044;-61
2023/05/20 01:13:53;;;;;;;19.83;8.00;;;10.10;99.90;;;;;;5040743;28;20086;-61
2023/05/20 01:16:23;;;;;;;18.40;8.00;;;10.10;99.90;;;;;;5043844;28;20034;-61
2023/05/20 01:18:54;;;;;;;18.17;7.95;;;10.10;99.90;;;;;;5039910;28;20037;-61
2023/05/20 01:21:20;;;;;;;18.83;7.97;;;10.10;99.90;;;;;;5029473;28;20124;-61
2023/05/20 01:23:46;;;;;;;18.67;8.25;;;10.10;99.90;;;;;;5042550;28;20499;-61
2023/05/20 01:26:12;;;;;;;17.02;8.40;;;10.10;99.90;;;;;;5037315;28;20060;-61
2023/05/20 01:28:38;;;;;;;21.35;8.25;;;10.10;99.90;;;;;;5040034;28;20037;-61
2023/05/20 01:31:08;;;;;;;18.70;8.18;;;10.10;99.90;;;;;;5040462;28;20029;-61
2023/05/20 01:33:36;;;;;;;20.38;7.78;;;10.20;99.90;;;;;;5071866;28;20170;-61
2023/05/20 01:36:02;;;;;;;16.27;8.60;;;10.10;99.90;;;;;;5037617;28;20065;-61
2023/05/20 01:38:28;;;;;;;16.85;8.05;;;10.20;99.90;;;;;;5034133;28;20420;-61
2023/05/20 01:40:56;;;;;;;19.80;8.73;;;10.20;99.90;;;;;;5046097;28;20052;-61
2023/05/20 01:43:23;;;;;;;21.83;8.73;;;10.20;99.90;;;;;;5044520;28;20051;-61
2023/05/20 01:45:48;;;;;;;20.63;8.27;;;10.20;99.90;;;;;;5037769;28;20692;-61
2023/05/20 01:48:15;;;;;;;22.30;8.43;;;10.30;99.90;;;;;;5047117;28;20045;-61
2023/05/20 01:50:41;;;;;;;12.80;7.80;;;10.30;99.90;;;;;;5036122;28;20041;-62
2023/05/20 01:53:08;;;;;;;20.75;8.45;;;10.30;99.90;;;;;;5039954;28;20048;-61
2023/05/20 01:55:34;;;;;;;20.98;8.20;;;10.20;99.90;;;;;;5040415;28;20083;-61
2023/05/20 01:58:00;;;;;;;20.58;7.75;;;10.20;99.90;;;;;;5041234;28;20069;-61
2023/05/20 02:00:25;;;;;;;15.35;7.35;;;10.20;99.90;;;;;;5042383;28;20041;-61
2023/05/20 02:02:51;;;;;;;16.83;8.20;;;10.20;99.90;;;;;;5077787;28;20040;-61
2023/05/20 02:05:16;;;;;;;19.30;8.13;;;10.20;99.90;;;;;;5045799;28;20047;-61
2023/05/20 02:07:42;;;;;;;19.00;8.68;;;10.20;99.90;;;;;;5039978;28;20228;-61
2023/05/20 02:10:08;;;;;;;19.80;8.65;;;10.20;99.90;;;;;;5049511;28;20129;-61
2023/05/20 02:12:34;;;;;;;21.63;8.30;;;10.20;99.90;;;;;;5039747;28;20040;-61
2023/05/20 02:14:59;;;;;;;16.00;8.38;;;10.20;99.90;;;;;;5048504;28;20036;-61
2023/05/20 02:17:25;;;;;;;21.33;8.30;;;10.20;99.90;;;;;;5048707;28;20045;-61
2023/05/20 02:19:51;;;;;;;19.92;7.72;;;10.20;99.90;;;;;;5049106;28;20079;-62
2023/05/20 02:22:17;;;;;;;17.05;7.97;;;10.20;99.90;;;;;;5034039;28;20472;-61
2023/05/20 02:24:43;;;;;;;15.80;8.55;;;10.20;99.90;;;;;;5048067;28;20052;-61
2023/05/20 02:27:08;;;;;;;16.60;7.97;;;10.20;99.90;;;;;;5031115;28;20167;-61
2023/05/20 02:29:34;;;;;;;19.60;7.95;;;10.20;99.90;;;;;;5038869;28;20164;-61
2023/05/20 02:32:00;;;;;;;16.50;7.28;;;10.20;99.90;;;;;;5046248;28;20037;-61
2023/05/20 02:34:26;;;;;;;16.33;8.48;;;10.20;99.90;;;;;;5042884;28;20036;-61
2023/05/20 02:36:52;;;;;;;18.05;7.28;;;10.20;99.90;;;;;;5042097;28;20040;-62
2023/05/20 02:39:17;;;;;;;16.58;7.57;;;10.20;99.90;;;;;;5036664;28;20033;-61
2023/05/20 02:41:43;;;;;;;16.83;7.18;;;10.20;99.90;;;;;;5079293;28;20051;-61
2023/05/20 02:44:08;;;;;;;15.25;7.57;;;10.20;99.90;;;;;;5039906;28;20128;-61
2023/05/20 02:46:34;;;;;;;15.00;7.70;;;10.20;99.90;;;;;;5045692;28;20045;-62
2023/05/20 02:49:00;;;;;;;14.52;7.07;;;10.10;99.90;;;;;;5041181;28;20041;-61
2023/05/20 02:51:25;;;;;;;13.55;7.30;;;10.10;99.90;;;;;;5046177;28;20120;-61
2023/05/20 02:53:51;;;;;;;15.20;7.43;;;10.10;99.90;;;;;;5041732;28;20083;-61
2023/05/20 02:56:20;;;;;;;14.52;7.63;;;10.10;99.90;;;;;;5047249;28;20034;-61
2023/05/20 02:58:46;;;;;;;16.80;7.40;;;10.00;99.90;;;;;;5072238;28;22350;-61
2023/05/20 03:01:11;;;;;;;15.57;7.03;;;10.00;99.90;;;;;;5043727;28;20083;-62
2023/05/20 03:03:37;;;;;;;14.20;7.50;;;10.00;99.90;;;;;;5039751;28;20488;-61
2023/05/20 03:06:02;;;;;;;13.32;7.05;;;10.00;99.90;;;;;;5040275;28;20076;-61
2023/05/20 03:08:28;;;;;;;18.77;6.60;;;10.00;99.90;;;;;;5044041;28;20033;-61
2023/05/20 03:10:54;;;;;;;17.20;7.28;;;10.00;99.90;;;;;;5039489;28;20033;-61
2023/05/20 03:13:19;;;;;;;15.77;7.55;;;10.00;99.90;;;;;;5043754;28;20041;-61
2023/05/20 03:15:45;;;;;;;12.45;6.55;;;10.10;99.90;;;;;;5038991;28;20029;-61
2023/05/20 03:18:12;;;;;;;18.38;7.55;;;10.10;99.90;;;;;;5043906;28;20036;-62
2023/05/20 03:20:38;;;;;;;15.25;7.53;;;10.10;99.90;;;;;;5046657;28;20562;-61
2023/05/20 03:23:05;;;;;;;16.17;7.18;;;10.10;99.90;;;;;;5045553;28;20048;-61
2023/05/20 03:25:31;;;;;;;13.38;6.78;;;10.10;99.90;;;;;;5042118;28;20036;-61
2023/05/20 03:27:59;;;;;;;13.50;6.90;;;10.10;99.90;;;;;;5041022;28;20232;-62
2023/05/20 03:30:28;;;;;;;14.45;7.32;;;10.10;99.90;;;;;;5043224;28;20064;-61
2023/05/20 03:32:56;;;;;;;15.32;7.88;;;10.10;99.90;;;;;;5042149;28;20044;-61
2023/05/20 03:35:22;;;;;;;14.73;6.90;;;10.10;99.90;;;;;;5044279;28;20033;-61
2023/05/20 03:37:47;;;;;;;13.32;6.70;;;10.10;99.90;;;;;;5043531;28;20048;-61
2023/05/20 03:40:13;;;;;;;14.93;7.03;;;10.10;99.90;;;;;;5040786;28;20048;-61
2023/05/20 03:42:39;;;;;;;16.63;7.70;;;10.20;99.90;;;;;;5046305;28;20051;-62
2023/05/20 03:45:05;;;;;;;14.10;7.47;;;10.10;99.90;;;;;;5044705;28;20481;-61
2023/05/20 03:47:31;;;;;;;14.40;7.47;;;10.10;99.90;;;;;;5041859;28;20496;-61
2023/05/20 03:49:57;;;;;;;15.52;7.43;;;10.10;99.90;;;;;;5039715;28;20052;-61
2023/05/20 03:52:22;;;;;;;12.23;6.75;;;10.10;99.90;;;;;;5046316;28;20025;-61
2023/05/20 03:54:48;;;;;;;12.77;7.05;;;10.20;99.90;;;;;;5075483;28;20178;-61
2023/05/20 03:57:13;;;;;;;16.13;6.82;;;10.20;99.90;;;;;;5045653;28;20037;-61
2023/05/20 03:59:39;;;;;;;11.93;6.70;;;10.20;99.90;;;;;;5040909;28;20039;-61
2023/05/20 04:02:05;;;;;;;12.20;6.45;;;10.20;99.90;;;;;;5048248;28;20032;-62
2023/05/20 04:04:31;;;;;;;12.07;6.72;;;10.20;99.90;;;;;;5049934;28;20032;-62
2023/05/20 04:07:01;;;;;;;11.55;6.55;;;10.30;99.90;;;;;;5043539;28;20029;-62
2023/05/20 04:09:27;;;;;;;12.38;6.30;;;10.30;99.90;;;;;;5076710;28;20033;-61
2023/05/20 04:11:53;;;;;;;11.82;6.70;;;10.30;99.90;;;;;;5043331;28;20502;-61
2023/05/20 04:14:18;;;;;;;13.77;6.72;;;10.30;99.90;;;;;;5045127;28;20037;-61
2023/05/20 04:16:44;;;;;;;11.18;6.82;;;10.30;99.90;;;;;;5046991;28;20037;-61
2023/05/20 04:19:11;;;;;;;14.02;6.78;;;10.20;99.90;;;;;;5051068;28;20117;-61
2023/05/20 04:21:37;;;;;;;14.82;6.32;;;10.20;99.90;;;;;;5043875;28;20045;-61
2023/05/20 04:24:03;;;;;;;11.98;6.85;;;10.20;99.90;;;;;;5048955;28;20044;-62
2023/05/20 04:26:28;;;;;;;11.07;5.93;;;10.30;99.90;;;;;;5051533;28;20037;-62
2023/05/20 04:28:57;;;;;;;10.05;5.95;;;10.30;99.90;;;;;;5040027;28;20041;-61
2023/05/20 04:31:25;;;;;;;10.77;6.63;;;10.20;99.90;;;;;;5037685;28;20067;-61
2023/05/20 04:33:52;;;;;;;14.45;6.43;;;10.30;99.90;;;;;;5051394;28;20037;-61
2023/05/20 04:36:17;;;;;;;11.00;6.00;;;10.30;99.90;;;;;;5047020;28;20025;-61
2023/05/20 04:38:43;;;;;;;10.05;6.28;;;10.30;99.90;;;;;;5045814;28;20051;-61
2023/05/20 04:41:09;;;;;;;12.52;6.28;;;10.30;99.90;;;;;;5047509;28;20487;-61
2023/05/20 04:43:37;;;;;;;14.57;5.82;;;10.30;99.90;;;;;;5049884;28;20135;-61
2023/05/20 04:46:06;;;;;;;10.43;5.78;;;10.40;99.90;;;;;;5031525;28;20045;-61
2023/05/20 04:48:32;;;;;;;10.18;5.45;;;10.50;99.90;;;;;;5046595;28;20537;-61
2023/05/20 04:50:58;;;;;;;12.40;6.07;;;10.50;99.90;;;;;;5047879;28;20041;-61
2023/05/20 04:53:25;;;;;;;14.45;5.82;;;10.50;99.90;;;;;;5045940;28;20025;-61
2023/05/20 04:55:55;;;;;;;10.90;5.35;;;10.60;99.90;;;;;;5050318;28;20079;-61
2023/05/20 04:58:23;;;;;;;10.60;6.40;;;10.60;99.90;;;;;;5038994;28;20045;-61
2023/05/20 05:00:49;;;;;;;14.20;5.85;;;10.70;99.90;;;;;;5048029;28;20043;-61
2023/05/20 05:03:15;;;;;;;10.43;5.13;;;10.70;99.90;;;;;;5043353;28;20155;-61
2023/05/20 05:05:41;;;;;;;10.88;5.45;;;10.80;99.90;;;;;;5047219;28;20529;-61
2023/05/20 05:08:08;;;;;;;12.40;5.85;;;10.90;99.90;;;;;;5040292;28;20120;-61
2023/05/20 05:10:34;;;;;;;7.82;5.32;;;11.00;99.90;;;;;;5039915;28;20128;-61
2023/05/20 05:13:00;;;;;;;9.82;4.85;;;11.20;99.90;;;;;;5038373;28;20045;-61
2023/05/20 05:15:26;;;;;;;11.43;4.90;;;11.20;99.90;;;;;;5078595;28;20411;-61
2023/05/20 05:17:52;;;;;;;12.10;4.90;;;11.30;99.90;;;;;;5038021;28;20124;-61
2023/05/20 05:20:18;;;;;;;9.70;4.68;;;11.50;99.90;;;;;;5041894;28;20118;-62
2023/05/20 05:22:43;;;;;;;10.05;4.82;;;11.60;99.90;;;;;;5043851;28;20087;-62
2023/05/20 05:25:10;;;;;;;9.30;4.43;;;11.70;99.90;;;;;;5041954;28;20035;-62
2023/05/20 05:27:36;;;;;;;8.55;4.80;;;11.70;99.90;;;;;;5071930;28;20046;-61
2023/05/20 05:30:03;;;;;;;8.50;4.63;;;11.80;99.90;;;;;;5044142;28;20252;-61
2023/05/20 05:32:29;;;;;;;11.30;5.05;;;12.00;99.90;;;;;;5072420;28;20037;-62
2023/05/20 05:34:54;;;;;;;8.88;4.50;;;12.00;99.90;;;;;;5042337;28;20094;-61
2023/05/20 05:37:20;;;;;;;8.95;4.00;;;12.10;99.90;;;;;;5071088;28;20396;-61
2023/05/20 05:39:46;;;;;;;11.02;4.47;;;12.20;99.90;;;;;;5045132;28;20540;-62
2023/05/20 05:42:11;;;;;;;8.98;4.32;;;12.30;99.90;;;;;;5040310;28;20601;-61
2023/05/20 05:44:37;;;;;;;6.47;4.00;;;12.40;99.90;;;;;;5047247;28;20033;-62
2023/05/20 05:47:04;;;;;;;8.23;4.18;;;12.50;99.90;;;;;;5044607;28;20468;-61
2023/05/20 05:49:30;;;;;;;8.48;4.25;;;12.60;99.90;;;;;;5052466;28;20068;-61
2023/05/20 05:51:55;;;;;;;7.63;3.95;;;12.60;99.90;;;;;;5045731;28;20408;-62
2023/05/20 05:54:21;;;;;;;7.32;4.00;;;12.70;99.90;;;;;;5047882;28;20036;-62
2023/05/20 05:56:46;;;;;;;7.32;3.90;;;12.80;99.90;;;;;;5048594;28;20044;-62
2023/05/20 05:59:12;;;;;;;8.07;3.80;;;12.90;99.90;;;;;;5042639;28;20036;-61
2023/05/20 06:01:37;;;;;;;7.35;3.70;;;13.00;99.90;;;;;;5049124;28;20044;-62
2023/05/20 06:04:03;;;;;;;8.63;3.83;;;13.10;99.90;;;;;;5035547;28;20031;-62
2023/05/20 06:06:30;;;;;;;7.03;3.28;;;13.20;99.90;;;;;;5042955;28;20167;-62
2023/05/20 06:08:56;;;;;;;7.78;3.88;;;13.20;99.90;;;;;;5045708;28;20158;-62
2023/05/20 06:11:22;;;;;;;6.13;3.60;;;13.30;99.90;;;;;;5053586;28;20041;-61
2023/05/20 06:13:49;;;;;;;5.30;3.47;;;13.40;99.90;;;;;;5049945;28;20041;-62
2023/05/20 06:16:15;;;;;;;6.75;2.95;;;13.50;99.90;;;;;;5054152;28;20037;-63
2023/05/20 06:18:41;;;;;;;6.35;3.30;;;13.60;99.90;;;;;;5049535;28;20037;-61
2023/05/20 06:21:07;;;;;;;6.20;3.63;;;13.70;99.90;;;;;;5066260;28;20037;-62
2023/05/20 06:23:32;;;;;;;6.80;3.35;;;13.70;99.90;;;;;;5046485;28;20033;-62
2023/05/20 06:25:59;;;;;;;5.78;3.47;;;13.80;99.90;;;;;;5053085;28;20084;-61
2023/05/20 06:28:25;;;;;;;9.00;3.30;;;13.90;99.90;;;;;;5051086;28;20033;-62
2023/05/20 06:30:55;;;;;;;10.27;3.38;;;14.00;99.90;;;;;;5079076;28;20048;-61
2023/05/20 06:33:25;;;;;;;6.45;3.40;;;14.10;99.90;;;;;;5049858;28;20040;-61
2023/05/20 06:35:51;;;;;;;8.30;3.22;;;14.10;99.90;;;;;;5045568;28;20477;-63
2023/05/20 06:38:18;;;;;;;7.53;3.38;;;14.20;99.90;;;;;;5040325;28;20064;-60
2023/05/20 06:40:43;;;;;;;6.65;3.20;;;14.30;99.90;;;;;;5075325;28;20064;-62
2023/05/20 06:43:09;;;;;;;5.28;3.08;;;14.30;99.90;;;;;;5046421;28;20052;-61
2023/05/20 06:45:34;;;;;;;5.38;3.30;;;14.50;99.90;;;;;;5045204;28;20472;-63
2023/05/20 06:48:00;;;;;;;5.15;3.00;;;14.50;99.90;;;;;;5041732;28;20510;-61
2023/05/20 06:50:27;;;;;;;6.00;3.33;;;14.60;99.90;;;;;;5048302;28;20041;-62
2023/05/20 06:52:52;;;;;;;6.63;3.30;;;14.70;99.90;;;;;;5036112;28;20312;-62
2023/05/20 06:55:18;;;;;;;7.55;3.83;;;14.80;99.90;;;;;;5046198;28;20036;-62
2023/05/20 06:57:44;;;;;;;4.78;3.38;;;14.90;99.90;;;;;;5044881;28;20045;-62
2023/05/20 07:00:10;;;;;;;6.03;3.50;;;15.00;99.90;;;;;;5041437;28;20131;-61
2023/05/20 07:02:36;;;;;;;7.15;3.50;;;15.10;99.90;;;;;;5036694;28;20033;-61
2023/05/20 07:05:02;;;;;;;4.95;3.10;;;15.10;99.90;;;;;;5039472;28;20522;-62
2023/05/20 07:07:27;;;;;;;6.97;3.75;;;15.20;99.90;;;;;;5038948;28;20041;-62
2023/05/20 07:09:54;;;;;;;8.63;3.33;;;15.20;99.90;;;;;;5040365;28;20035;-62
2023/05/20 07:12:19;;;;;;;5.90;3.60;;;15.30;99.90;;;;;;5043230;28;20043;-62
2023/05/20 07:14:45;;;;;;;7.50;3.58;;;15.40;99.90;;;;;;5042411;28;20042;-62
2023/05/20 07:17:11;;;;;;;7.70;3.58;;;15.40;99.90;;;;;;5036896;28;20076;-62
2023/05/20 07:19:37;;;;;;;8.15;3.65;;;15.50;99.90;;;;;;5045666;28;20055;-62
2023/05/20 07:22:02;;;;;;;8.70;3.33;;;15.60;99.90;;;;;;5044012;28;20049;-61
2023/05/20 07:24:28;;;;;;;4.90;3.38;;;15.70;99.90;;;;;;5043681;28;20091;-62
2023/05/20 07:26:54;;;;;;;6.68;3.28;;;15.70;99.90;;;;;;5040118;28;20383;-62
2023/05/20 07:29:19;;;;;;;7.90;3.47;;;15.80;99.90;;;;;;5041753;28;20037;-63
2023/05/20 07:31:45;;;;;;;6.22;3.22;;;15.80;99.90;;;;;;5076752;28;20048;-62
2023/05/20 07:34:10;;;;;;;4.63;3.25;;;15.90;99.90;;;;;;5046065;28;20040;-62
2023/05/20 07:36:37;;;;;;;8.35;3.20;;;16.00;99.90;;;;;;5029504;28;20041;-63
2023/05/20 07:39:02;;;;;;;5.90;3.55;;;16.10;99.90;;;;;;5045978;28;20083;-62
2023/05/20 07:41:28;;;;;;;4.30;2.97;;;16.20;99.90;;;;;;5032750;28;20037;-62
2023/05/20 07:43:54;;;;;;;5.82;3.13;;;16.40;99.90;;;;;;5037277;28;20048;-63
2023/05/20 07:46:20;;;;;;;6.10;3.22;;;16.50;99.90;;;;;;5036526;28;20044;-62
2023/05/20 07:48:45;;;;;;;7.28;2.95;;;16.70;99.90;;;;;;5037294;28;20041;-63
2023/05/20 07:51:11;;;;;;;5.22;3.20;;;16.70;99.90;;;;;;5048810;28;20044;-63
2023/05/20 07:53:37;;;;;;;5.88;3.20;;;16.80;99.90;;;;;;5046561;28;20045;-63
2023/05/20 07:56:02;;;;;;;7.10;3.50;;;16.80;99.90;;;;;;5044738;28;20040;-62
2023/05/20 07:58:28;;;;;;;7.72;3.90;;;16.90;99.90;;;;;;5073100;28;20610;-63
2023/05/20 08:00:54;;;;;;;5.43;3.35;;;16.90;99.90;;;;;;5042289;28;20072;-62
2023/05/20 08:03:21;;;;;;;5.80;3.58;;;17.00;99.90;;;;;;5074033;28;20033;-63
2023/05/20 08:05:46;;;;;;;6.57;3.50;;;17.10;99.90;;;;;;5041430;28;20037;-62
2023/05/20 08:08:12;;;;;;;5.03;3.38;;;17.20;99.90;;;;;;5029362;28;20056;-63
2023/05/20 08:10:37;;;;;;;7.57;3.50;;;17.30;99.90;;;;;;5044121;28;20065;-63
2023/05/20 08:13:03;;;;;;;7.93;3.70;;;17.30;99.90;;;;;;5039721;28;20147;-62
2023/05/20 08:15:29;;;;;;;7.28;3.28;;;17.30;99.90;;;;;;5028844;28;20050;-64
2023/05/20 08:17:55;;;;;;;7.70;3.45;;;17.30;99.90;;;;;;5037657;28;20283;-61
2023/05/20 08:20:20;;;;;;;5.90;3.28;;;17.30;99.90;;;;;;5041355;28;21402;-61
2023/05/20 08:22:46;;;;;;;6.68;2.80;;;17.40;99.90;;;;;;5043658;28;20045;-62
2023/05/20 08:25:12;;;;;;;8.30;3.20;;;17.50;99.90;;;;;;5072298;28;20051;-62
2023/05/20 08:27:37;;;;;;;7.25;3.53;;;17.60;99.90;;;;;;5045808;28;20041;-62
2023/05/20 08:30:05;;;;;;;5.70;3.67;;;17.70;99.90;;;;;;5030357;28;20046;-62
2023/05/20 08:32:31;;;;;;;5.63;3.22;;;17.70;99.90;;;;;;5048245;28;20043;-61
2023/05/20 08:34:56;;;;;;;7.20;2.83;;;17.90;99.90;;;;;;5045081;28;20037;-63
2023/05/20 08:37:22;;;;;;;9.10;3.75;;;17.90;99.90;;;;;;5034713;28;20044;-61
2023/05/20 08:39:48;;;;;;;18.95;4.10;;;18.00;99.90;;;;;;5046170;28;20506;-62
2023/05/20 08:42:15;;;;;;;6.57;2.90;;;18.10;99.90;;;;;;5029556;28;20445;-61
2023/05/20 08:44:41;;;;;;;6.60;2.70;;;18.20;99.90;;;;;;5065811;28;20037;-62
2023/05/20 08:47:09;;;;;;;18.52;4.03;;;18.20;99.90;;;;;;5043613;28;20542;-61
2023/05/20 08:49:34;;;;;;;5.03;3.22;;;18.30;99.90;;;;;;5041252;28;20079;-61
2023/05/20 08:52:00;;;;;;;10.30;3.70;;;18.30;99.90;;;;;;5045921;28;20076;-62
2023/05/20 08:54:50;;;;;;;6.30;2.90;;;18.30;99.90;;;;;;5045818;28;20043;-61
2023/05/20 08:57:16;;;;;;;6.65;2.85;;;18.30;99.90;;;;;;5041231;28;22176;-63
2023/05/20 08:59:43;;;;;;;6.28;3.00;;;18.40;99.90;;;;;;5045871;28;20041;-62
2023/05/20 09:02:12;;;;;;;6.68;3.00;;;18.40;99.90;;;;;;5043861;28;20396;-62
2023/05/20 09:04:38;;;;;;;5.65;3.17;;;18.30;99.90;;;;;;5044619;28;20071;-61
2023/05/20 09:07:04;;;;;;;9.73;3.50;;;18.20;99.90;;;;;;5040975;28;20487;-62
2023/05/20 09:09:32;;;;;;;5.53;3.28;;;18.10;99.90;;;;;;5042004;28;20480;-63
2023/05/20 09:12:00;;;;;;;17.55;3.72;;;18.20;99.90;;;;;;5036769;28;20485;-63
2023/05/20 09:14:28;;;;;;;5.60;2.95;;;18.20;99.90;;;;;;5037700;28;20033;-63
2023/05/20 09:16:54;;;;;;;7.15;3.72;;;18.20;99.90;;;;;;5035625;28;20483;-62
2023/05/20 09:19:22;;;;;;;7.70;3.58;;;18.30;99.90;;;;;;5039344;28;20090;-61
2023/05/20 09:21:49;;;;;;;17.17;3.88;;;18.40;99.90;;;;;;5040456;28;20040;-61
2023/05/20 09:24:19;;;;;;;17.42;3.72;;;18.50;99.90;;;;;;5040509;28;20476;-62
2023/05/20 09:26:45;;;;;;;6.05;3.20;;;18.50;99.90;;;;;;5040127;28;20045;-62
2023/05/20 09:29:11;;;;;;;7.88;3.45;;;18.50;99.90;;;;;;5034665;28;20040;-62
2023/05/20 09:31:37;;;;;;;5.15;3.30;;;18.50;99.90;;;;;;5030884;28;20048;-62
2023/05/20 09:34:03;;;;;;;7.57;3.38;;;18.60;99.90;;;;;;5072360;28;20037;-63
2023/05/20 09:36:30;;;;;;;22.80;4.13;;;18.80;99.90;;;;;;5041946;28;20032;-62
2023/05/20 09:39:02;;;;;;;5.53;3.28;;;18.90;99.90;;;;;;5054118;28;20047;-62
2023/05/20 09:41:34;;;;;;;8.70;3.40;;;19.00;99.90;;;;;;5042620;28;20115;-62
2023/05/20 09:43:59;;;;;;;5.30;3.20;;;19.10;99.90;;;;;;5034229;28;20659;-63
2023/05/20 09:46:26;;;;;;;15.60;3.60;;;19.30;99.90;;;;;;5031909;28;20045;-62
2023/05/20 09:48:52;;;;;;;5.15;3.00;;;19.30;99.90;;;;;;5046868;28;20048;-63
2023/05/20 09:51:21;;;;;;;7.32;3.38;;;19.20;99.90;;;;;;5042869;28;20399;-63
2023/05/20 09:53:47;;;;;;;6.25;3.17;;;19.20;99.90;;;;;;5045167;28;20357;-62
2023/05/20 09:56:13;;;;;;;9.65;3.40;;;19.30;99.90;;;;;;5042350;28;20202;-63
2023/05/20 09:58:40;;;;;;;7.78;3.10;;;19.40;99.90;;;;;;5037021;28;20039;-61
2023/05/20 10:01:06;;;;;;;6.20;3.42;;;19.30;99.90;;;;;;5047274;28;20412;-62
2023/05/20 10:03:32;;;;;;;8.13;3.40;;;19.30;99.90;;;;;;5046211;28;20049;-62
2023/05/20 10:06:22;;;;;;;6.50;3.13;;;19.20;99.90;;;;;;5048046;28;20044;-63
2023/05/20 10:09:20;;;;;;;5.95;2.97;;;19.20;99.90;;;;;;5041884;28;20190;-62
2023/05/20 10:12:27;;;;;;;6.78;3.20;;;19.30;99.90;;;;;;5045456;28;20037;-62
2023/05/20 10:15:26;;;;;;;5.25;3.20;;;19.40;99.90;;;;;;5047117;28;20037;-64
2023/05/20 10:18:07;;;;;;;5.70;3.13;;;19.40;99.90;;;;;;5046895;28;20033;-63
2023/05/20 10:20:48;;;;;;;5.65;3.03;;;19.50;99.90;;;;;;5043080;28;20052;-63
2023/05/20 10:23:29;;;;;;;8.85;3.13;;;19.50;99.90;;;;;;5042448;28;20083;-64
2023/05/20 10:25:56;;;;;;;7.90;3.45;;;19.60;99.90;;;;;;5073378;28;20044;-63
2023/05/20 10:28:35;;;;;;;7.63;3.10;;;19.70;99.90;;;;;;5040916;28;20081;-62
2023/05/20 10:31:01;;;;;;;9.95;3.78;;;19.90;99.90;;;;;;5047372;28;20482;-64
2023/05/20 10:33:29;;;;;;;3.60;3.05;;;20.10;99.90;;;;;;5042716;28;20033;-64
2023/05/20 10:36:01;;;;;;;5.20;3.22;;;20.20;99.90;;;;;;5078865;28;20487;-63
2023/05/20 10:38:26;;;;;;;;;;;20.30;99.90;;;;;;5047437;28;20124;-64
2023/05/20 10:40:52;;;;;;;5.03;2.80;;;20.40;99.90;;;;;;5049741;28;20007;-64
2023/05/20 10:43:27;;;;;;;7.97;3.38;;;20.50;99.90;;;;;;5049442;28;20040;-63
2023/05/20 10:45:58;;;;;;;5.57;3.10;;;20.60;99.90;;;;;;5048587;28;20446;-64
2023/05/20 10:48:27;;;;;;;6.00;3.50;;;20.50;99.90;;;;;;5043821;28;20082;-62
2023/05/20 10:51:03;;;;;;;4.95;2.67;;;20.50;99.90;;;;;;5049734;28;20041;-63
2023/05/20 10:53:37;;;;;;;7.78;3.13;;;20.50;99.90;;;;;;5049367;28;20037;-63
2023/05/20 10:56:03;;;;;;;4.55;2.75;;;20.60;99.90;;;;;;5033477;28;20045;-63
2023/05/20 10:58:36;;;;;;;6.88;3.33;;;20.50;99.90;;;;;;5043413;28;20396;-63
2023/05/20 11:01:02;;;;;;;8.60;3.30;;;20.20;99.90;;;;;;5038571;28;20462;-65
2023/05/20 11:03:28;;;;;;;7.30;3.30;;;20.00;99.90;;;;;;5047401;28;20029;-64
2023/05/20 11:05:54;;;;;;;6.28;3.28;;;20.10;99.90;;;;;;5047227;28;20047;-63
2023/05/20 11:08:20;;;;;;;7.47;3.05;;;20.10;99.90;;;;;;5047147;28;20108;-62
2023/05/20 11:10:46;;;;;;;4.60;3.00;;;20.10;99.90;;;;;;5048880;28;20049;-63
2023/05/20 11:13:14;;;;;;;3.97;2.67;;;20.10;99.90;;;;;;5048685;28;20044;-63
2023/05/20 11:15:40;;;;;;;3.97;2.85;;;20.30;99.90;;;;;;5035953;28;20079;-63
2023/05/20 11:18:06;;;;;;;4.78;2.63;;;20.50;99.90;;;;;;5051117;28;20487;-63
2023/05/20 11:20:34;;;;;;;11.02;3.95;;;20.70;99.90;;;;;;5048165;28;20049;-62
2023/05/20 11:23:02;;;;;;;6.93;2.88;;;20.70;99.90;;;;;;5045532;28;20146;-64
2023/05/20 11:25:28;;;;;;;6.40;2.80;;;20.50;99.90;;;;;;5050393;28;20049;-64
2023/05/20 11:27:55;;;;;;;5.55;2.67;;;20.40;99.90;;;;;;5042789;28;20407;-64
2023/05/20 11:30:21;;;;;;;6.65;3.10;;;20.40;99.90;;;;;;5052085;28;20507;-63
2023/05/20 11:32:58;;;;;;;4.80;3.20;;;20.40;99.90;;;;;;5049062;28;20037;-64
2023/05/20 11:35:25;;;;;;;3.67;2.65;;;20.50;99.60;;;;;;5051136;28;20045;-63
2023/05/20 11:38:04;;;;;;;4.97;2.63;;;20.60;99.90;;;;;;5045775;28;20148;-64
2023/05/20 11:40:31;;;;;;;6.53;2.92;;;20.70;99.10;;;;;;5044677;28;20040;-62
2023/05/20 11:42:59;;;;;;;7.43;3.15;;;20.80;99.90;;;;;;5041842;28;20049;-63
2023/05/20 11:45:26;;;;;;;5.38;2.92;;;20.70;98.90;;;;;;5049796;28;20083;-63
2023/05/20 11:48:02;;;;;;;6.03;2.83;;;20.70;99.90;;;;;;5051460;28;20045;-63
2023/05/20 11:50:34;;;;;;;8.95;2.90;;;20.80;99.90;;;;;;5043939;28;20048;-64
2023/05/20 11:53:02;;;;;;;5.13;2.67;;;21.00;99.90;;;;;;5042303;28;20048;-64
2023/05/20 11:55:28;;;;;;;8.63;2.92;;;21.10;99.90;;;;;;5049537;28;20041;-62
2023/05/20 11:57:55;;;;;;;5.80;3.10;;;21.20;99.90;;;;;;5054625;28;20033;-63
2023/05/20 12:00:22;;;;;;;6.60;2.80;;;21.20;98.40;;;;;;5046102;28;20049;-63
2023/05/20 12:02:48;;;;;;;6.80;2.95;;;21.10;99.30;;;;;;5043545;28;20069;-63
2023/05/20 12:05:14;;;;;;;5.18;2.90;;;21.10;99.20;;;;;;5045288;28;20084;-62
2023/05/20 12:07:39;;;;;;;5.18;2.80;;;21.10;99.30;;;;;;5041202;28;20037;-63
2023/05/20 12:10:05;;;;;;;6.00;3.10;;;21.20;99.40;;;;;;5048001;28;20342;-64
2023/05/20 12:12:31;;;;;;;7.82;3.08;;;21.20;99.30;;;;;;5041950;28;20083;-65
2023/05/20 12:14:57;;;;;;;4.78;2.67;;;21.10;98.80;;;;;;5049754;28;20045;-64
2023/05/20 12:17:22;;;;;;;5.10;2.97;;;21.00;98.70;;;;;;5046757;28;20076;-64
2023/05/20 12:19:48;;;;;;;7.60;2.85;;;20.90;98.20;;;;;;5052745;28;20040;-63
2023/05/20 12:22:13;;;;;;;4.88;3.03;;;20.90;98.10;;;;;;5043357;28;20489;-63
2023/05/20 12:24:39;;;;;;;6.13;3.58;;;20.70;98.00;;;;;;5047233;28;20090;-63
2023/05/20 12:27:05;;;;;;;8.18;3.60;;;20.60;98.80;;;;;;5048417;28;20063;-63
2023/05/20 12:29:31;;;;;;;9.43;3.60;;;20.40;98.40;;;;;;5047764;28;20032;-65
2023/05/20 12:31:57;;;;;;;7.03;3.42;;;20.30;99.10;;;;;;5047918;28;20041;-64
2023/05/20 12:34:22;;;;;;;6.50;3.17;;;20.10;99.20;;;;;;5046290;28;20124;-63
2023/05/20 12:36:48;;;;;;;5.20;3.15;;;20.20;99.60;;;;;;5076330;28;20064;-63
2023/05/20 12:39:16;;;;;;;9.02;3.85;;;20.40;99.90;;;;;;5049491;28;20129;-63
2023/05/20 12:41:42;;;;;;;7.57;3.65;;;20.50;99.50;;;;;;5080429;28;20150;-62